Time;durP1;ratioP1;P1;durP2;ratioP2;P2;SDS_P1;SDS_P2;PMS_P1;PMS_P2;Temp;Humidity;BMP_temperature;BMP_pressure;BME280_temperature;BME280_humidity;BME280_pressure;Samples;Min_cycle;Max_cycle;Signal;HPM_P1;HPM_P2
2022/12/07 00:01:40;;;;;;;15.57;11.90;;;;;;;2.75;100.00;101682.16;4987662;28;20448;-67
2022/12/07 00:04:07;;;;;;;16.03;12.57;;;;;;;2.76;100.00;101680.50;4987569;28;20062;-66
2022/12/07 00:06:37;;;;;;;14.87;12.27;;;;;;;2.75;100.00;101694.09;4987453;28;20285;-67
2022/12/07 00:09:04;;;;;;;14.83;12.10;;;;;;;2.74;100.00;101682.03;4988525;28;20044;-66
2022/12/07 00:11:29;;;;;;;13.47;10.97;;;;;;;2.72;100.00;101681.94;4990108;28;20038;-67
2022/12/07 00:14:01;;;;;;;12.30;11.00;;;;;;;2.72;100.00;101683.59;4991243;28;20037;-66
2022/12/07 00:16:30;;;;;;;12.23;11.03;;;;;;;2.71;100.00;101692.97;4990702;28;20390;-67
2022/12/07 00:18:55;;;;;;;14.10;10.53;;;;;;;2.66;100.00;101678.91;4990331;28;20117;-66
2022/12/07 00:21:26;;;;;;;12.63;10.63;;;;;;;2.58;100.00;101678.31;4990478;28;20117;-66
2022/12/07 00:23:53;;;;;;;12.00;10.70;;;;;;;2.55;100.00;101679.72;4991273;28;20088;-67
2022/12/07 00:26:36;;;;;;;13.63;11.50;;;;;;;2.51;100.00;101669.25;4990808;28;20018;-66
2022/12/07 00:29:05;;;;;;;13.50;11.47;;;;;;;2.50;100.00;101671.69;4990834;28;20356;-66
2022/12/07 00:31:38;;;;;;;13.20;10.90;;;;;;;2.47;100.00;101666.31;4990553;28;20023;-67
2022/12/07 00:34:04;;;;;;;16.40;11.20;;;;;;;2.40;100.00;101660.75;4991414;28;20034;-65
2022/12/07 00:36:29;;;;;;;13.77;11.00;;;;;;;2.35;100.00;101666.25;4991137;28;20018;-65
2022/12/07 00:38:58;;;;;;;14.67;10.53;;;;;;;2.34;100.00;101657.69;4990061;28;20022;-66
2022/12/07 00:41:26;;;;;;;12.80;10.10;;;;;;;2.31;100.00;101662.56;4990875;28;20026;-65
2022/12/07 00:43:51;;;;;;;13.03;10.60;;;;;;;2.30;100.00;101663.34;4990860;28;20033;-65
2022/12/07 00:46:17;;;;;;;15.17;11.40;;;;;;;2.29;100.00;101664.09;4990169;28;20402;-66
2022/12/07 00:48:43;;;;;;;12.73;10.53;;;;;;;2.24;100.00;101671.44;4990373;28;20049;-65
2022/12/07 00:51:11;;;;;;;14.03;11.60;;;;;;;2.21;100.00;101668.63;4990144;28;20060;-65
2022/12/07 00:53:37;;;;;;;11.73;10.27;;;;;;;2.19;100.00;101664.16;4990654;28;20105;-65
2022/12/07 00:56:07;;;;;;;14.13;10.97;;;;;;;2.20;100.00;101665.94;4990830;28;20031;-65
2022/12/07 00:58:32;;;;;;;12.77;11.47;;;;;;;2.20;100.00;101660.81;4990147;28;20113;-65
2022/12/07 01:01:01;;;;;;;14.70;12.40;;;;;;;2.23;100.00;101666.19;4990185;28;20019;-65
2022/12/07 01:03:27;;;;;;;13.27;11.87;;;;;;;2.24;100.00;101657.72;4990247;28;20026;-65
2022/12/07 01:05:54;;;;;;;12.20;10.93;;;;;;;2.22;100.00;101665.28;4990543;28;20038;-65
2022/12/07 01:08:20;;;;;;;15.37;11.27;;;;;;;2.21;100.00;101654.94;4989434;28;20023;-65
2022/12/07 01:10:46;;;;;;;13.90;11.30;;;;;;;2.18;100.00;101657.25;4990815;28;20057;-65
2022/12/07 01:13:11;;;;;;;16.97;12.10;;;;;;;2.14;100.00;101657.00;4989949;28;20109;-66
2022/12/07 01:15:44;;;;;;;12.83;11.40;;;;;;;2.15;100.00;101657.91;4990403;28;20153;-65
2022/12/07 01:18:10;;;;;;;15.20;11.53;;;;;;;2.16;100.00;101655.47;4990220;28;20121;-65
2022/12/07 01:20:35;;;;;;;14.47;11.13;;;;;;;2.17;100.00;101661.47;4988952;28;20026;-66
2022/12/07 01:23:01;;;;;;;13.47;10.70;;;;;;;2.15;100.00;101658.81;4990461;28;20026;-65
2022/12/07 01:25:27;;;;;;;11.67;10.47;;;;;;;2.10;100.00;101664.31;4990318;28;20130;-65
2022/12/07 01:27:52;;;;;;;11.93;9.90;;;;;;;2.09;100.00;101659.94;4989121;28;20041;-66
2022/12/07 01:30:17;;;;;;;14.30;10.97;;;;;;;2.08;100.00;101659.09;4990051;28;20030;-65
2022/12/07 01:32:43;;;;;;;17.13;12.20;;;;;;;2.07;100.00;101659.84;4989475;28;20033;-65
2022/12/07 01:35:08;;;;;;;13.77;12.27;;;;;;;2.09;100.00;101658.28;4990162;28;20050;-65
2022/12/07 01:37:35;;;;;;;12.50;10.57;;;;;;;2.10;100.00;101665.22;4989839;28;20022;-66
2022/12/07 01:40:01;;;;;;;13.70;10.77;;;;;;;2.11;100.00;101668.66;4989238;28;20110;-66
2022/12/07 01:42:27;;;;;;;13.83;11.37;;;;;;;2.10;100.00;101669.44;4989706;28;20113;-65
2022/12/07 01:45:40;;;;;;;12.17;10.87;;;;;;;2.12;100.00;101666.22;4989465;28;20031;-65
2022/12/07 01:48:09;;;;;;;14.50;11.70;;;;;;;2.15;100.00;101669.03;4977314;28;20050;-66
2022/12/07 01:50:35;;;;;;;11.97;10.53;;;;;;;2.18;100.00;101659.81;4989460;28;20042;-65
2022/12/07 01:53:05;;;;;;;12.57;10.93;;;;;;;2.21;100.00;101662.63;4989473;28;20034;-66
2022/12/07 01:55:30;;;;;;;13.47;11.27;;;;;;;2.24;100.00;101660.28;4988432;28;20479;-66
2022/12/07 01:57:56;;;;;;;14.07;11.90;;;;;;;2.27;100.00;101661.44;4989369;28;20062;-65
2022/12/07 02:00:22;;;;;;;14.57;10.80;;;;;;;2.27;100.00;101657.97;4989294;28;20117;-65
2022/12/07 02:02:53;;;;;;;15.43;11.50;;;;;;;2.30;100.00;101658.22;4989423;28;20060;-66
2022/12/07 02:05:18;;;;;;;12.10;10.93;;;;;;;2.31;100.00;101654.00;4988924;28;20037;-65
2022/12/07 02:07:47;;;;;;;13.60;11.03;;;;;;;2.32;100.00;101648.13;4985159;28;20176;-65
2022/12/07 02:10:17;;;;;;;11.30;10.10;;;;;;;2.33;100.00;101663.59;4986436;28;20487;-65
2022/12/07 02:12:45;;;;;;;15.63;10.47;;;;;;;2.34;100.00;101650.00;4989261;28;20032;-65
2022/12/07 02:15:11;;;;;;;11.63;10.20;;;;;;;2.35;100.00;101651.81;4988815;28;20034;-65
2022/12/07 02:17:45;;;;;;;13.00;10.13;;;;;;;2.33;100.00;101653.34;4988689;28;20156;-65
2022/12/07 02:21:02;;;;;;;11.97;10.10;;;;;;;2.29;100.00;101653.88;4988890;28;20033;-65
2022/12/07 02:23:42;;;;;;;11.07;8.97;;;;;;;2.24;100.00;101652.63;4936256;29;20102;-65
2022/12/07 02:26:10;;;;;;;14.33;10.87;;;;;;;2.21;100.00;101653.28;4985431;28;20502;-65
2022/12/07 02:29:23;;;;;;;11.73;9.70;;;;;;;2.19;100.00;101653.91;4988924;28;20036;-65
2022/12/07 02:32:00;;;;;;;12.10;9.97;;;;;;;2.14;100.00;101651.00;4943571;28;20398;-65
2022/12/07 02:35:00;;;;;;;12.63;10.90;;;;;;;2.10;100.00;101652.44;4988586;28;20537;-65
2022/12/07 02:37:37;;;;;;;15.60;11.13;;;;;;;2.09;100.00;101649.72;4986499;28;20037;-65
2022/12/07 02:40:11;;;;;;;12.20;10.90;;;;;;;2.07;100.00;101649.59;4976652;28;20440;-65
2022/12/07 02:42:43;;;;;;;13.17;10.40;;;;;;;2.03;100.00;101643.34;4988279;28;20100;-65
2022/12/07 02:45:12;;;;;;;12.83;10.47;;;;;;;2.03;100.00;101648.47;4987757;28;20364;-65
2022/12/07 02:47:38;;;;;;;12.33;10.67;;;;;;;2.00;100.00;101647.31;4988296;28;20030;-65
2022/12/07 02:50:06;;;;;;;14.60;10.77;;;;;;;1.96;100.00;101642.75;4987645;28;20014;-66
2022/12/07 02:52:31;;;;;;;15.20;10.93;;;;;;;1.95;100.00;101649.53;4988304;28;20546;-65
2022/12/07 02:54:56;;;;;;;13.90;10.83;;;;;;;1.95;100.00;101646.06;4987814;28;20157;-65
2022/12/07 02:57:48;;;;;;;12.80;11.47;;;;;;;1.95;100.00;101648.63;4978506;28;20034;-65
2022/12/07 03:00:20;;;;;;;17.73;10.93;;;;;;;1.94;100.00;101655.44;4976245;28;20068;-65
2022/12/07 03:03:03;;;;;;;12.47;11.23;;;;;;;1.95;100.00;101653.75;4987907;28;20026;-65
2022/12/07 03:05:57;;;;;;;13.57;10.70;;;;;;;1.94;100.00;101652.88;4987168;28;20085;-65
2022/12/07 03:08:48;;;;;;;12.37;11.10;;;;;;;1.91;100.00;101650.03;4988365;28;20045;-65
2022/12/07 03:11:25;;;;;;;11.37;10.17;;;;;;;1.88;100.00;101649.81;4988123;28;20116;-65
2022/12/07 03:14:00;;;;;;;13.27;11.57;;;;;;;1.87;100.00;101656.56;4987809;28;20045;-65
2022/12/07 03:16:35;;;;;;;12.30;11.00;;;;;;;1.87;100.00;101653.16;4974883;28;20025;-65
2022/12/07 03:19:17;;;;;;;13.07;11.40;;;;;;;1.87;100.00;101648.91;4987516;28;20458;-65
2022/12/07 03:21:47;;;;;;;14.87;10.63;;;;;;;1.88;100.00;101655.81;4988405;28;20634;-65
2022/12/07 03:24:19;;;;;;;12.77;10.73;;;;;;;1.88;100.00;101648.16;4984732;28;20387;-65
2022/12/07 03:26:50;;;;;;;12.53;11.23;;;;;;;1.92;100.00;101646.72;4978787;28;20653;-65
2022/12/07 03:29:31;;;;;;;14.67;10.97;;;;;;;1.94;100.00;101639.19;4987813;28;20038;-65
2022/12/07 03:32:06;;;;;;;13.97;10.83;;;;;;;1.93;100.00;101645.94;4976109;28;20033;-65
2022/12/07 03:34:38;;;;;;;13.13;10.43;;;;;;;1.92;100.00;101646.72;4986388;28;20030;-65
2022/12/07 03:37:11;;;;;;;12.20;10.90;;;;;;;1.92;100.00;101647.59;4987463;28;20029;-65
2022/12/07 03:40:05;;;;;;;11.47;9.73;;;;;;;1.88;100.00;101648.16;4987515;28;20483;-65
2022/12/07 03:42:32;;;;;;;13.20;10.07;;;;;;;1.87;100.00;101648.03;4987271;28;20026;-66
2022/12/07 03:44:58;;;;;;;13.37;9.67;;;;;;;1.86;100.00;101646.22;4987362;28;20038;-66
2022/12/07 03:47:34;;;;;;;12.70;10.37;;;;;;;1.83;100.00;101644.34;4986948;28;20031;-65
2022/12/07 03:50:11;;;;;;;13.93;10.87;;;;;;;1.83;100.00;101644.34;4987227;28;20382;-65
2022/12/07 03:52:58;;;;;;;12.83;10.60;;;;;;;1.80;100.00;101641.50;4987442;28;20026;-65
2022/12/07 03:55:29;;;;;;;12.20;10.90;;;;;;;1.82;100.00;101639.09;4987533;28;20113;-66
2022/12/07 03:57:57;;;;;;;;;;;;;;;1.84;100.00;101637.53;4987410;28;20482;-65
2022/12/07 04:00:22;;;;;;;12.23;10.93;;;;;;;1.86;100.00;101634.34;4987423;28;20394;-65
2022/12/07 04:02:51;;;;;;;12.57;11.27;;;;;;;1.89;100.00;101638.81;4987489;28;20034;-66
2022/12/07 04:05:17;;;;;;;13.33;10.77;;;;;;;1.91;100.00;101637.25;4986976;28;20026;-65
2022/12/07 04:07:42;;;;;;;12.37;11.00;;;;;;;1.91;100.00;101633.03;4987233;28;20034;-65
2022/12/07 04:10:08;;;;;;;13.17;10.43;;;;;;;1.94;100.00;101628.97;4986721;28;20585;-65
2022/12/07 04:12:33;;;;;;;12.50;10.60;;;;;;;1.96;100.00;101633.41;4987013;28;20034;-65
2022/12/07 04:14:58;;;;;;;13.00;11.40;;;;;;;1.98;100.00;101638.66;4986432;28;20030;-65
2022/12/07 04:17:24;;;;;;;11.00;9.97;;;;;;;2.01;100.00;101639.81;4987287;28;20034;-65
2022/12/07 04:19:49;;;;;;;10.77;9.77;;;;;;;2.04;100.00;101639.13;4980692;28;20031;-65
2022/12/07 04:22:14;;;;;;;16.03;10.07;;;;;;;2.05;100.00;101640.94;4981354;28;20096;-65
2022/12/07 04:24:40;;;;;;;11.73;9.27;;;;;;;2.08;100.00;101641.19;4987760;28;20026;-65
2022/12/07 04:27:05;;;;;;;12.43;9.60;;;;;;;2.08;100.00;101638.63;4987326;28;20113;-65
2022/12/07 04:29:30;;;;;;;10.87;9.07;;;;;;;2.10;100.00;101637.09;4986177;28;20038;-65
2022/12/07 04:31:56;;;;;;;10.60;9.50;;;;;;;2.11;100.00;101626.06;4980100;28;20039;-65
2022/12/07 04:34:21;;;;;;;10.33;9.30;;;;;;;2.12;100.00;101630.41;4980992;28;20177;-65
2022/12/07 04:36:47;;;;;;;14.17;9.10;;;;;;;2.15;100.00;101632.31;4975437;28;20501;-65
2022/12/07 04:39:33;;;;;;;9.60;8.60;;;;;;;2.15;100.00;101633.22;4987203;28;20441;-65
2022/12/07 04:42:00;;;;;;;16.27;9.27;;;;;;;2.16;100.00;101622.22;4986401;28;20395;-65
2022/12/07 04:44:26;;;;;;;9.97;7.83;;;;;;;2.18;100.00;101616.34;4986687;28;20030;-65
2022/12/07 04:46:52;;;;;;;11.43;8.30;;;;;;;2.18;100.00;101626.56;4986876;28;20054;-66
2022/12/07 04:49:18;;;;;;;10.70;9.13;;;;;;;2.19;100.00;101618.13;4985987;28;20411;-65
2022/12/07 04:51:45;;;;;;;9.93;8.57;;;;;;;2.21;100.00;101621.69;4976272;28;20528;-66
2022/12/07 04:54:11;;;;;;;13.10;8.67;;;;;;;2.21;100.00;101621.69;4980309;28;20030;-66
2022/12/07 04:56:37;;;;;;;13.83;9.37;;;;;;;2.21;100.00;101626.81;4981511;28;20368;-65
2022/12/07 04:59:03;;;;;;;10.13;8.57;;;;;;;2.21;100.00;101617.47;4990180;28;20427;-65
2022/12/07 05:01:28;;;;;;;12.57;9.33;;;;;;;2.22;100.00;101618.34;4990676;28;20095;-65
2022/12/07 05:03:53;;;;;;;13.50;9.17;;;;;;;2.22;100.00;101614.13;4989926;28;20045;-65
2022/12/07 05:06:19;;;;;;;12.80;9.93;;;;;;;2.22;100.00;101613.22;4989973;28;20490;-65
2022/12/07 05:08:44;;;;;;;11.27;10.07;;;;;;;2.21;100.00;101606.34;4989310;28;20034;-65
2022/12/07 05:11:37;;;;;;;13.13;10.00;;;;;;;2.21;100.00;101616.56;4989167;28;20038;-65
2022/12/07 05:14:00;;;;;;;11.60;10.37;;;;;;;2.20;100.00;101618.22;4987835;28;20284;-65
2022/12/07 05:16:25;;;;;;;11.43;9.23;;;;;;;2.19;100.00;101607.88;4990103;28;20364;-65
2022/12/07 05:18:51;;;;;;;12.60;10.10;;;;;;;2.17;100.00;101610.31;4989973;28;20113;-65
2022/12/07 05:21:16;;;;;;;13.37;10.03;;;;;;;2.14;100.00;101612.66;4989552;28;20498;-66
2022/12/07 05:23:41;;;;;;;11.20;9.90;;;;;;;2.11;100.00;101609.81;4989925;28;20085;-65
2022/12/07 05:26:06;;;;;;;11.97;9.47;;;;;;;2.06;100.00;101614.59;4989574;28;20030;-65
2022/12/07 05:28:32;;;;;;;12.03;10.40;;;;;;;2.06;100.00;101611.13;4989922;28;20034;-65
2022/12/07 05:30:57;;;;;;;11.60;9.80;;;;;;;1.98;100.00;101608.84;4989737;28;20030;-65
2022/12/07 05:33:22;;;;;;;11.70;10.00;;;;;;;1.97;100.00;101611.28;4989961;28;20022;-65
2022/12/07 05:35:47;;;;;;;11.63;10.37;;;;;;;1.95;100.00;101615.38;4989323;28;20031;-65
2022/12/07 05:38:13;;;;;;;10.90;9.50;;;;;;;1.89;100.00;101619.25;4979028;28;20030;-65
2022/12/07 05:40:38;;;;;;;10.97;9.23;;;;;;;1.86;100.00;101623.22;4985850;28;20022;-65
2022/12/07 05:43:03;;;;;;;17.80;10.20;;;;;;;1.83;100.00;101618.78;4987017;28;20486;-65
2022/12/07 05:45:28;;;;;;;12.30;9.43;;;;;;;1.85;100.00;101616.34;4989068;28;20050;-65
2022/12/07 05:47:55;;;;;;;15.40;10.00;;;;;;;1.82;100.00;101613.53;4987647;28;20375;-65
2022/12/07 05:50:20;;;;;;;10.93;9.63;;;;;;;1.79;100.00;101603.94;4989008;28;20459;-66
2022/12/07 05:52:45;;;;;;;15.63;9.57;;;;;;;1.75;100.00;101605.38;4989912;28;20038;-65
2022/12/07 05:55:11;;;;;;;13.17;8.53;;;;;;;1.72;100.00;101601.66;4989038;28;20430;-65
2022/12/07 05:57:36;;;;;;;9.60;8.27;;;;;;;1.67;100.00;101602.19;4989606;28;20108;-65
2022/12/07 06:00:04;;;;;;;12.20;9.10;;;;;;;1.62;100.00;101602.59;4988123;28;20117;-65
2022/12/07 06:02:29;;;;;;;10.30;8.40;;;;;;;1.56;100.00;101603.00;4988456;28;20041;-66
2022/12/07 06:04:54;;;;;;;8.77;7.73;;;;;;;1.50;100.00;101597.38;4988717;28;20026;-65
2022/12/07 06:07:19;;;;;;;9.37;8.10;;;;;;;1.46;100.00;101603.03;4988824;28;20553;-66
2022/12/07 06:09:45;;;;;;;10.60;7.43;;;;;;;1.41;100.00;101603.53;4988495;28;20031;-66
2022/12/07 06:14:55;;;;;;;11.07;8.20;;;;;;;1.33;100.00;101609.69;4988103;28;20053;-65
2022/12/07 06:17:21;;;;;;;10.10;8.70;;;;;;;1.27;100.00;101614.28;4986614;28;20440;-65
2022/12/07 06:19:46;;;;;;;10.80;8.73;;;;;;;1.23;100.00;101608.03;4987764;28;20045;-65
2022/12/07 06:22:12;;;;;;;9.50;8.47;;;;;;;1.19;100.00;101611.97;4988504;28;20047;-65
2022/12/07 06:24:38;;;;;;;15.43;8.20;;;;;;;1.16;100.00;101605.72;4988627;28;20081;-65
2022/12/07 06:27:03;;;;;;;9.60;8.50;;;;;;;1.13;100.00;101611.50;4988726;28;20438;-65
2022/12/07 06:29:29;;;;;;;9.77;8.40;;;;;;;1.11;100.00;101612.09;4986811;28;20030;-65
2022/12/07 06:31:54;;;;;;;11.10;8.10;;;;;;;1.06;100.00;101614.28;4988690;28;20471;-65
2022/12/07 06:34:22;;;;;;;13.70;8.90;;;;;;;1.05;100.00;101620.16;4988524;28;20518;-65
2022/12/07 06:36:51;;;;;;;12.57;8.60;;;;;;;1.04;100.00;101618.38;4988929;28;20030;-65
2022/12/07 06:39:18;;;;;;;11.70;8.27;;;;;;;1.03;100.00;101619.13;4988067;28;20034;-65
2022/12/07 06:41:43;;;;;;;13.30;8.80;;;;;;;1.03;100.00;101621.66;4987721;28;20026;-65
2022/12/07 06:44:08;;;;;;;10.20;8.03;;;;;;;1.03;100.00;101611.47;4985823;28;20030;-65
2022/12/07 06:46:35;;;;;;;9.30;8.10;;;;;;;1.06;100.00;101609.19;4987636;28;20483;-65
2022/12/07 06:49:01;;;;;;;11.57;8.77;;;;;;;1.10;100.00;101610.34;4988534;28;20046;-65
2022/12/07 06:51:26;;;;;;;10.53;8.70;;;;;;;1.11;100.00;101609.56;4987365;28;20025;-65
2022/12/07 06:53:51;;;;;;;11.07;8.73;;;;;;;1.14;100.00;101612.34;4986491;28;20042;-65
2022/12/07 06:56:17;;;;;;;11.37;9.60;;;;;;;1.18;100.00;101610.19;4988528;28;20019;-65
2022/12/07 06:58:42;;;;;;;12.00;10.77;;;;;;;1.21;100.00;101619.75;4987571;28;20110;-65
2022/12/07 07:01:12;;;;;;;14.03;9.63;;;;;;;1.24;100.00;101614.03;4988324;28;20046;-65
2022/12/07 07:03:38;;;;;;;10.97;8.97;;;;;;;1.27;100.00;101604.06;4987595;28;20033;-64
2022/12/07 07:06:04;;;;;;;14.00;9.70;;;;;;;1.29;100.00;101620.41;4984058;28;20026;-65
2022/12/07 07:08:30;;;;;;;12.50;8.67;;;;;;;1.31;100.00;101614.63;4987734;28;20137;-65
2022/12/07 07:10:55;;;;;;;11.70;9.47;;;;;;;1.34;100.00;101616.56;4987291;28;20118;-65
2022/12/07 07:13:21;;;;;;;9.13;7.93;;;;;;;1.32;100.00;101625.75;4985617;28;20031;-65
2022/12/07 07:15:46;;;;;;;13.07;8.77;;;;;;;1.30;100.00;101624.72;4986566;28;20550;-65
2022/12/07 07:18:12;;;;;;;10.27;7.97;;;;;;;1.29;100.00;101622.97;4987003;28;20022;-64
2022/12/07 07:20:38;;;;;;;13.17;8.90;;;;;;;1.29;100.00;101626.41;4984995;28;20113;-65
2022/12/07 07:23:03;;;;;;;9.07;8.10;;;;;;;1.30;100.00;101627.28;4971301;28;20019;-65
2022/12/07 07:25:29;;;;;;;15.30;9.47;;;;;;;1.33;100.00;101631.78;4984936;28;20092;-64
2022/12/07 07:27:54;;;;;;;10.57;8.57;;;;;;;1.33;100.00;101624.09;4979013;28;20111;-65
2022/12/07 07:30:19;;;;;;;14.70;8.43;;;;;;;1.34;100.00;101620.78;4985816;28;20032;-64
2022/12/07 07:32:45;;;;;;;13.57;9.10;;;;;;;1.36;100.00;101625.25;4985783;28;20030;-64
2022/12/07 07:35:10;;;;;;;11.80;9.17;;;;;;;1.36;100.00;101630.34;4986531;28;20029;-64
2022/12/07 07:37:35;;;;;;;11.80;9.63;;;;;;;1.38;100.00;101627.94;4982677;28;20015;-64
2022/12/07 07:40:01;;;;;;;14.10;8.80;;;;;;;1.37;100.00;101627.03;4980616;28;20030;-64
2022/12/07 07:42:26;;;;;;;10.80;8.67;;;;;;;1.38;100.00;101627.94;4966744;28;20032;-64
2022/12/07 07:44:51;;;;;;;13.00;8.43;;;;;;;1.40;100.00;101627.28;4973215;28;20030;-64
2022/12/07 07:47:16;;;;;;;12.90;9.07;;;;;;;1.41;100.00;101626.53;4978662;28;20104;-65
2022/12/07 07:49:42;;;;;;;12.23;8.50;;;;;;;1.41;100.00;101623.97;4982609;28;20509;-64
2022/12/07 07:52:07;;;;;;;16.90;8.27;;;;;;;1.42;100.00;101623.19;4986451;28;20117;-64
2022/12/07 07:54:32;;;;;;;12.53;8.60;;;;;;;1.41;100.00;101634.19;4983833;28;20053;-64
2022/12/07 07:56:58;;;;;;;9.63;8.00;;;;;;;1.41;100.00;101636.75;4975508;28;20069;-64
2022/12/07 07:59:24;;;;;;;15.30;8.63;;;;;;;1.43;100.00;101634.31;4980622;28;20106;-64
2022/12/07 08:01:49;;;;;;;10.30;8.67;;;;;;;1.44;100.00;101629.31;4984578;28;20475;-64
2022/12/07 08:04:15;;;;;;;10.73;8.00;;;;;;;1.49;100.00;101628.81;4980129;28;20030;-64
2022/12/07 08:06:42;;;;;;;10.70;8.50;;;;;;;1.49;100.00;101631.38;4978815;28;20138;-64
2022/12/07 08:09:08;;;;;;;9.90;7.50;;;;;;;1.51;100.00;101632.41;4978284;28;20022;-65
2022/12/07 08:11:33;;;;;;;10.90;8.77;;;;;;;1.53;100.00;101634.28;4987204;28;20100;-64
2022/12/07 08:13:58;;;;;;;10.20;8.00;;;;;;;1.54;100.00;101636.09;4978963;28;20459;-64
2022/12/07 08:16:24;;;;;;;12.67;8.53;;;;;;;1.56;100.00;101636.22;4984174;28;20667;-64
2022/12/07 08:18:49;;;;;;;13.63;7.77;;;;;;;1.58;100.00;101641.44;4986106;28;20026;-64
2022/12/07 08:21:15;;;;;;;8.27;7.43;;;;;;;1.59;100.00;101641.56;4985675;28;20045;-65
2022/12/07 08:23:41;;;;;;;10.07;8.17;;;;;;;1.62;100.00;101653.72;4985239;28;20032;-64
2022/12/07 08:26:12;;;;;;;10.80;8.13;;;;;;;1.63;100.00;101655.47;4973521;28;20027;-65
2022/12/07 08:28:39;;;;;;;12.30;7.80;;;;;;;1.63;100.00;101656.38;4987372;28;20394;-65
2022/12/07 08:31:08;;;;;;;12.40;8.00;;;;;;;1.65;100.00;101653.94;4989146;28;20318;-64
2022/12/07 08:33:34;;;;;;;11.70;7.93;;;;;;;1.65;100.00;101656.50;4989380;28;20030;-64
2022/12/07 08:36:08;;;;;;;11.30;7.07;;;;;;;1.66;100.00;101659.19;4990460;28;20049;-64
2022/12/07 08:38:35;;;;;;;9.07;7.77;;;;;;;1.71;100.00;101658.69;4990481;28;20030;-64
2022/12/07 08:41:01;;;;;;;10.07;7.50;;;;;;;1.77;100.00;101661.72;4990131;28;20105;-65
2022/12/07 08:43:26;;;;;;;13.90;9.03;;;;;;;1.82;100.00;101664.66;4990098;28;20026;-64
2022/12/07 08:46:16;;;;;;;8.30;7.60;;;;;;;1.88;100.00;101662.59;4990401;28;20090;-64
2022/12/07 08:48:51;;;;;;;13.03;7.70;;;;;;;1.94;100.00;101654.53;4986365;28;20118;-64
2022/12/07 08:51:17;;;;;;;12.47;7.77;;;;;;;1.97;100.00;101652.19;4986636;28;20467;-64
2022/12/07 08:53:43;;;;;;;12.87;8.20;;;;;;;2.00;100.00;101649.88;4989716;28;20037;-65
2022/12/07 08:56:09;;;;;;;10.70;7.30;;;;;;;2.03;100.00;101645.91;4990287;28;20026;-64
2022/12/07 08:58:36;;;;;;;9.00;7.40;;;;;;;2.06;100.00;101646.94;4989841;28;20033;-64
2022/12/07 09:01:02;;;;;;;11.13;6.43;;;;;;;2.06;100.00;101650.38;4981727;28;20041;-64
2022/12/07 09:03:28;;;;;;;10.90;6.30;;;;;;;2.09;100.00;101647.16;4987008;28;20489;-64
2022/12/07 09:05:54;;;;;;;10.10;6.87;;;;;;;2.10;100.00;101644.75;4989950;28;20417;-64
2022/12/07 09:08:20;;;;;;;8.77;6.17;;;;;;;2.12;100.00;101643.19;4986331;28;20050;-64
2022/12/07 09:10:46;;;;;;;10.73;6.20;;;;;;;2.15;100.00;101643.47;4990114;28;20038;-64
2022/12/07 09:13:11;;;;;;;10.50;6.30;;;;;;;2.18;100.00;101636.81;4989229;28;20028;-64
2022/12/07 09:15:36;;;;;;;8.97;5.77;;;;;;;2.19;100.00;101636.91;4990258;28;20019;-65
2022/12/07 09:18:02;;;;;;;6.63;5.23;;;;;;;2.23;100.00;101643.16;4988619;28;20015;-64
2022/12/07 09:20:27;;;;;;;10.87;6.47;;;;;;;2.27;100.00;101642.63;4988023;28;20402;-64
2022/12/07 09:22:52;;;;;;;10.27;5.87;;;;;;;2.31;100.00;101639.53;4989378;28;20149;-65
2022/12/07 09:25:17;;;;;;;8.67;5.27;;;;;;;2.34;100.00;101644.88;4989265;28;20025;-64
2022/12/07 09:27:43;;;;;;;9.37;6.03;;;;;;;2.38;100.00;101641.81;4987808;28;20018;-65
2022/12/07 09:30:08;;;;;;;9.67;5.37;;;;;;;2.40;100.00;101635.16;4989206;28;20255;-65
2022/12/07 09:32:33;;;;;;;6.17;5.07;;;;;;;2.44;100.00;101637.94;4987863;28;20042;-64
2022/12/07 09:34:59;;;;;;;10.33;5.20;;;;;;;2.45;100.00;101642.28;4989523;28;20030;-64
2022/12/07 09:37:24;;;;;;;7.30;4.93;;;;;;;2.46;100.00;101644.06;4987166;28;20042;-65
2022/12/07 09:39:50;;;;;;;7.10;5.40;;;;;;;2.45;100.00;101642.28;4989095;28;20033;-64
2022/12/07 09:42:49;;;;;;;10.10;5.80;;;;;;;2.44;100.00;101649.06;4987015;28;20029;-64
2022/12/07 09:45:30;;;;;;;11.00;6.20;;;;;;;2.45;100.00;101645.72;4962914;28;20092;-64
2022/12/07 09:47:57;;;;;;;8.88;4.90;;;;;;;2.46;100.00;101644.06;4987573;28;20034;-64
2022/12/07 09:50:25;;;;;;;11.93;5.73;;;;;;;2.46;100.00;101644.06;4982125;28;20030;-64
2022/12/07 09:52:52;;;;;;;9.83;5.43;;;;;;;2.48;100.00;101651.09;4987279;28;20022;-64
2022/12/07 09:55:27;;;;;;;9.93;5.40;;;;;;;2.50;100.00;101643.56;4985805;28;20033;-64
2022/12/07 09:57:53;;;;;;;9.50;5.70;;;;;;;2.52;100.00;101639.41;4987611;28;20362;-64
2022/12/07 10:00:23;;;;;;;10.37;5.40;;;;;;;2.57;100.00;101647.47;4977277;28;20014;-64
2022/12/07 10:02:55;;;;;;;5.53;4.88;;;;;;;2.60;100.00;101637.47;4984377;28;20034;-64
2022/12/07 10:05:26;;;;;;;;;;;;;;;2.62;100.00;101636.81;4989014;28;20033;-64
2022/12/07 10:07:51;;;;;;;;;;;;;;;2.64;100.00;101625.00;4987569;28;20011;-64
2022/12/07 10:10:27;;;;;;;10.37;5.33;;;;;;;2.66;100.00;101617.47;4987749;28;19952;-64
2022/12/07 10:12:54;;;;;;;8.93;5.57;;;;;;;2.69;100.00;101616.81;4984949;28;20037;-64
2022/12/07 10:15:19;;;;;;;8.67;5.77;;;;;;;2.70;100.00;101619.47;4989095;28;20073;-64
2022/12/07 10:17:51;;;;;;;7.13;4.93;;;;;;;2.75;100.00;101614.72;4986456;28;20030;-64
2022/12/07 10:20:25;;;;;;;7.30;5.10;;;;;;;2.83;100.00;101613.63;4986949;28;20064;-64
2022/12/07 10:22:54;;;;;;;8.93;5.07;;;;;;;2.91;100.00;101618.44;4984238;28;20030;-64
2022/12/07 10:25:21;;;;;;;10.80;4.60;;;;;;;2.99;100.00;101613.13;4988303;28;20034;-65
2022/12/07 10:28:08;;;;;;;10.77;4.90;;;;;;;3.08;100.00;101615.50;4980939;28;20046;-64
2022/12/07 10:30:59;;;;;;;12.20;4.30;;;;;;;3.14;100.00;101609.94;4985036;28;20485;-65
2022/12/07 10:33:38;;;;;;;5.05;3.90;;;;;;;3.21;100.00;101608.72;4987985;28;20038;-64
2022/12/07 10:36:20;;;;;;;4.67;3.70;;;;;;;3.25;100.00;101603.06;4984430;28;20022;-64
2022/12/07 10:38:51;;;;;;;7.37;4.27;;;;;;;3.29;100.00;101601.63;4985240;28;20125;-65
2022/12/07 10:41:16;;;;;;;7.17;3.93;;;;;;;3.30;100.00;101598.25;4979388;28;20038;-65
2022/12/07 10:43:54;;;;;;;6.57;4.33;;;;;;;3.32;100.00;101595.03;4983378;28;20493;-64
2022/12/07 10:46:40;;;;;;;4.50;3.57;;;;;;;3.36;100.00;101594.47;4983402;28;20093;-64
2022/12/07 10:49:48;;;;;;;10.80;4.37;;;;;;;3.43;100.00;101600.06;4987315;28;20426;-64
2022/12/07 10:52:42;;;;;;;7.67;4.27;;;;;;;3.49;100.00;101597.94;4987258;28;20049;-65
2022/12/07 10:55:19;;;;;;;6.37;3.93;;;;;;;3.57;100.00;101590.81;4987723;28;20386;-64
2022/12/07 10:58:03;;;;;;;6.10;3.90;;;;;;;3.69;100.00;101593.38;4988254;28;20034;-64
2022/12/07 11:00:46;;;;;;;5.40;4.00;;;;;;;3.78;100.00;101575.22;4979608;28;20026;-64
2022/12/07 11:03:21;;;;;;;6.40;3.80;;;;;;;3.88;100.00;101579.31;4983309;28;20357;-64
2022/12/07 11:06:27;;;;;;;8.03;4.27;;;;;;;3.94;100.00;101574.63;4980937;28;20069;-64
2022/12/07 11:09:00;;;;;;;5.33;4.27;;;;;;;4.00;100.00;101569.03;4966831;28;20061;-64
2022/12/07 11:11:35;;;;;;;6.50;3.53;;;;;;;4.04;100.00;101569.38;4979040;28;20037;-64
2022/12/07 11:14:16;;;;;;;4.67;3.10;;;;;;;4.08;100.00;101568.78;4987860;28;20033;-64
2022/12/07 11:16:53;;;;;;;5.90;3.70;;;;;;;4.13;100.00;101563.09;4986481;28;20036;-64
2022/12/07 11:19:32;;;;;;;7.20;3.50;;;;;;;4.16;100.00;101563.28;4987335;28;20477;-64
2022/12/07 11:22:29;;;;;;;5.17;3.17;;;;;;;4.15;100.00;101565.00;4980469;28;20037;-64
2022/12/07 11:25:03;;;;;;;5.47;3.53;;;;;;;4.15;100.00;101554.72;4971198;28;20467;-64
2022/12/07 11:27:39;;;;;;;5.63;3.20;;;;;;;4.17;100.00;101572.78;4977417;28;20044;-64
2022/12/07 11:30:07;;;;;;;5.45;3.15;;;;;;;4.18;100.00;101560.06;4981575;28;20026;-64
2022/12/07 11:32:41;;;;;;;7.00;3.37;;;;;;;4.18;100.00;101562.63;4985179;28;20084;-64